Terminal Aerodrome Forecast
Issued by NWS

Home | Current Version | Previous Version | Text Only | Print | Product List | Glossary On
Versions: 1 2 3 4 5 6 7 8 9 10 11 12 13 14 15 16 17 18 19 20 21 22
000
FTUS44 KLZK 172300
TAFLLQ
TAF
KLLQ 172340Z 1800/1824 VRB03KT P6SM SCT120 BKN250
      TEMPO 1811/1815 5SM BR BKN015
     FM181500 08004KT P6SM VCSH BKN020 BKN050
     FM181900 09006KT P6SM VCTS SCT030CB BKN060=

USA.gov is the U.S. government's official web portal to all federal, state and local government web resources and services.